createdAt,value
2018-07-20T00:02:12.916Z,19.80
2018-07-20T00:04:41.368Z,19.80
2018-07-20T00:07:09.798Z,19.80
2018-07-20T00:09:38.196Z,19.70
2018-07-20T00:12:07.160Z,19.60
2018-07-20T00:14:35.581Z,19.60
2018-07-20T00:17:04.062Z,19.50
2018-07-20T00:19:32.512Z,19.50
2018-07-20T00:22:00.949Z,19.40
2018-07-20T00:24:29.348Z,19.30
2018-07-20T00:26:57.808Z,19.20
2018-07-20T00:29:26.257Z,19.10
2018-07-20T00:31:54.751Z,19.00
2018-07-20T00:34:23.120Z,19.00
2018-07-20T00:36:51.656Z,18.90
2018-07-20T00:39:20.044Z,18.90
2018-07-20T00:41:48.437Z,19.00
2018-07-20T00:44:16.861Z,19.00
2018-07-20T00:46:45.264Z,18.80
2018-07-20T00:49:13.840Z,18.80
2018-07-20T00:51:42.402Z,18.70
2018-07-20T00:54:10.825Z,18.60
2018-07-20T00:56:39.273Z,18.60
2018-07-20T00:59:07.687Z,18.50
2018-07-20T01:01:36.105Z,18.40
2018-07-20T01:04:04.664Z,18.40
2018-07-20T01:06:33.083Z,18.30
2018-07-20T01:09:01.510Z,18.30
2018-07-20T01:11:29.985Z,18.20
2018-07-20T01:13:58.456Z,18.20
2018-07-20T01:16:26.827Z,18.20
2018-07-20T01:18:55.252Z,18.10
2018-07-20T01:21:23.668Z,18.10
2018-07-20T01:23:52.088Z,18.10
2018-07-20T01:26:20.540Z,18.00
2018-07-20T01:28:48.949Z,18.00
2018-07-20T01:31:17.347Z,17.90
2018-07-20T01:33:45.723Z,17.80
2018-07-20T01:36:14.140Z,17.80
2018-07-20T01:38:42.543Z,17.80
2018-07-20T01:41:10.964Z,17.80
2018-07-20T01:43:39.356Z,17.70
2018-07-20T01:46:08.841Z,17.70
2018-07-20T01:48:37.261Z,17.60
2018-07-20T01:51:05.712Z,17.60
2018-07-20T01:53:34.115Z,17.60
2018-07-20T01:56:02.507Z,17.50
2018-07-20T01:58:30.908Z,17.40
2018-07-20T02:03:27.428Z,17.30
2018-07-20T02:05:55.872Z,17.30
2018-07-20T02:08:24.249Z,17.20
2018-07-20T02:10:57.684Z,17.20
2018-07-20T02:13:26.460Z,17.10
2018-07-20T02:15:55.324Z,17.10
2018-07-20T02:18:24.503Z,17.10
2018-07-20T02:23:22.140Z,17.10
2018-07-20T02:25:50.554Z,17.00
2018-07-20T02:28:18.976Z,17.00
2018-07-20T02:30:47.405Z,17.00
2018-07-20T02:33:15.789Z,17.00
2018-07-20T02:35:44.195Z,16.90
2018-07-20T02:38:12.604Z,16.80
2018-07-20T02:40:41.015Z,16.80
2018-07-20T02:43:09.393Z,16.80
2018-07-20T02:48:05.869Z,16.70
2018-07-20T02:50:34.276Z,16.70
2018-07-20T02:53:02.656Z,16.70
2018-07-20T02:55:31.041Z,16.70
2018-07-20T02:57:59.506Z,16.70
2018-07-20T03:00:27.948Z,16.60
2018-07-20T03:02:56.412Z,16.60
2018-07-20T03:05:24.909Z,16.60
2018-07-20T03:07:53.417Z,16.60
2018-07-20T03:10:21.833Z,16.60
2018-07-20T03:12:50.227Z,16.60
2018-07-20T03:15:18.629Z,16.60
2018-07-20T03:17:47.055Z,16.60
2018-07-20T03:20:15.436Z,16.50
2018-07-20T03:22:43.900Z,16.50
2018-07-20T03:25:12.276Z,16.50
2018-07-20T03:27:40.699Z,16.50
2018-07-20T03:30:09.139Z,16.40
2018-07-20T03:32:37.850Z,16.50
2018-07-20T03:35:06.857Z,16.40
2018-07-20T03:37:35.627Z,16.50
2018-07-20T03:40:04.109Z,16.50
2018-07-20T03:42:32.549Z,16.50
2018-07-20T03:45:00.943Z,16.50
2018-07-20T03:47:29.455Z,16.50
2018-07-20T03:49:57.877Z,16.50
2018-07-20T03:52:26.252Z,16.60
2018-07-20T03:54:54.653Z,16.60
2018-07-20T03:57:23.019Z,16.60
2018-07-20T03:59:51.463Z,16.60
2018-07-20T04:02:19.921Z,16.60
2018-07-20T04:04:48.424Z,16.60
2018-07-20T04:07:16.818Z,16.70
2018-07-20T04:09:45.388Z,16.70
2018-07-20T04:12:14.386Z,16.70
2018-07-20T04:14:42.811Z,16.80
2018-07-20T04:17:11.228Z,16.80
2018-07-20T04:19:39.660Z,16.90
2018-07-20T04:22:08.029Z,16.90
2018-07-20T04:24:36.509Z,16.90
2018-07-20T04:27:04.920Z,17.00
2018-07-20T04:29:33.336Z,17.00
2018-07-20T04:32:01.788Z,17.10
2018-07-20T04:34:30.200Z,17.10
2018-07-20T04:36:58.621Z,17.20
2018-07-20T04:39:27.037Z,17.20
2018-07-20T04:41:55.474Z,17.20
2018-07-20T04:44:23.874Z,17.10
2018-07-20T04:46:52.278Z,17.10
2018-07-20T04:49:20.798Z,17.00
2018-07-20T04:51:49.195Z,17.00
2018-07-20T04:54:17.630Z,17.10
2018-07-20T04:56:46.104Z,17.10
2018-07-20T04:59:14.512Z,17.20
2018-07-20T05:01:42.965Z,17.20
2018-07-20T05:04:11.332Z,17.30
2018-07-20T05:06:39.736Z,17.30
2018-07-20T05:09:09.536Z,17.30
2018-07-20T05:11:38.665Z,17.30
2018-07-20T05:14:07.324Z,17.30
2018-07-20T05:16:35.823Z,17.30
2018-07-20T05:19:04.243Z,17.30
2018-07-20T05:21:32.687Z,17.30
2018-07-20T05:24:01.345Z,17.40
2018-07-20T05:26:30.150Z,17.40
2018-07-20T05:28:58.643Z,17.40
2018-07-20T05:31:27.064Z,17.60
2018-07-20T05:36:23.614Z,17.90
2018-07-20T05:38:52.085Z,18.30
2018-07-20T05:41:20.465Z,18.60
2018-07-20T05:43:48.858Z,19.00
2018-07-20T05:46:17.561Z,19.30
2018-07-20T05:48:46.184Z,19.70
2018-07-20T05:51:14.779Z,20.10
2018-07-20T05:53:43.260Z,20.40
2018-07-20T05:56:11.728Z,20.80
2018-07-20T05:58:40.221Z,21.10
2018-07-20T06:01:08.700Z,21.30
2018-07-20T06:03:37.124Z,21.60
2018-07-20T06:06:05.836Z,21.90
2018-07-20T06:08:34.240Z,22.00
2018-07-20T06:11:02.676Z,22.60
2018-07-20T06:15:59.280Z,23.10
2018-07-20T06:18:27.711Z,23.40
2018-07-20T06:20:56.201Z,23.80
2018-07-20T06:23:25.037Z,24.40
2018-07-20T06:25:53.470Z,24.80
2018-07-20T06:28:21.904Z,24.80
2018-07-20T06:30:50.697Z,25.30
2018-07-20T06:33:19.088Z,25.10
2018-07-20T06:35:47.545Z,25.30
2018-07-20T06:38:16.332Z,25.10
2018-07-20T06:40:45.092Z,24.90
2018-07-20T06:43:13.684Z,24.70
2018-07-20T06:45:42.097Z,24.70
2018-07-20T06:48:10.536Z,25.10
2018-07-20T06:50:38.941Z,25.40
2018-07-20T06:53:07.348Z,25.00
2018-07-20T06:55:35.812Z,24.90
2018-07-20T06:58:04.251Z,24.90
2018-07-20T07:00:32.719Z,24.00
2018-07-20T07:03:01.217Z,23.70
2018-07-20T07:05:29.693Z,23.70
2018-07-20T07:07:58.139Z,23.50
2018-07-20T07:10:26.553Z,23.10
2018-07-20T07:12:55.046Z,23.00
2018-07-20T07:15:23.612Z,23.10
2018-07-20T07:17:52.036Z,23.00
2018-07-20T07:20:20.482Z,23.10
2018-07-20T07:22:48.971Z,22.90
2018-07-20T07:25:17.405Z,23.10
2018-07-20T07:27:45.904Z,23.10
2018-07-20T07:30:14.322Z,23.10
2018-07-20T07:32:42.735Z,23.20
2018-07-20T07:35:11.185Z,23.30
2018-07-20T07:37:39.673Z,23.40
2018-07-20T07:40:08.235Z,23.40
2018-07-20T07:42:36.829Z,23.40
2018-07-20T07:45:05.408Z,23.40
2018-07-20T07:47:33.795Z,23.50
2018-07-20T07:50:02.227Z,23.50
2018-07-20T07:52:30.720Z,23.60
2018-07-20T07:54:59.133Z,23.80
2018-07-20T07:57:27.512Z,23.80
2018-07-20T07:59:55.961Z,23.80
2018-07-20T08:02:24.363Z,23.80
2018-07-20T08:04:52.891Z,24.10
2018-07-20T08:07:21.290Z,24.10
2018-07-20T08:09:50.134Z,23.90
2018-07-20T08:12:18.480Z,23.90
2018-07-20T08:14:48.270Z,24.20
2018-07-20T08:17:16.710Z,24.30
2018-07-20T08:19:45.132Z,24.50
2018-07-20T08:22:13.560Z,24.30
2018-07-20T08:24:42.017Z,24.20
2018-07-20T08:27:10.523Z,24.20
2018-07-20T08:29:38.991Z,24.00
2018-07-20T08:32:07.416Z,24.10
2018-07-20T08:34:35.856Z,24.00
2018-07-20T08:37:04.272Z,23.80
2018-07-20T08:39:32.675Z,23.70
2018-07-20T08:42:01.148Z,23.60
2018-07-20T08:44:29.549Z,23.60
2018-07-20T08:46:57.981Z,23.80
2018-07-20T08:49:26.441Z,23.80
2018-07-20T08:51:55.046Z,23.90
2018-07-20T08:54:23.487Z,24.10
2018-07-20T08:56:51.916Z,24.40
2018-07-20T08:59:20.702Z,24.60
2018-07-20T09:01:49.513Z,24.60
2018-07-20T09:04:17.932Z,24.00
2018-07-20T09:06:46.357Z,24.00
2018-07-20T09:09:14.789Z,24.10
2018-07-20T09:11:43.277Z,24.50
2018-07-20T09:14:11.781Z,24.80
2018-07-20T09:16:40.279Z,25.10
2018-07-20T09:19:08.692Z,25.20
2018-07-20T09:21:37.122Z,25.20
2018-07-20T09:24:05.560Z,25.20
2018-07-20T09:26:34.001Z,25.20
2018-07-20T09:29:02.671Z,25.40
2018-07-20T09:31:31.156Z,25.30
2018-07-20T09:33:59.619Z,25.50
2018-07-20T09:36:28.073Z,25.70
2018-07-20T09:38:56.543Z,25.90
2018-07-20T09:41:25.083Z,26.00
2018-07-20T09:43:53.572Z,26.00
2018-07-20T09:46:22.125Z,26.20
2018-07-20T09:48:50.649Z,26.30
2018-07-20T09:51:19.064Z,26.10
2018-07-20T09:56:15.662Z,26.00
2018-07-20T09:58:44.104Z,25.90
2018-07-20T10:01:12.652Z,26.00
2018-07-20T10:03:41.108Z,26.10
2018-07-20T10:06:09.547Z,26.30
2018-07-20T10:08:38.016Z,26.30
2018-07-20T10:13:34.703Z,25.80
2018-07-20T10:16:03.328Z,25.80
2018-07-20T10:18:31.994Z,25.90
2018-07-20T10:21:00.496Z,26.00
2018-07-20T10:23:28.948Z,26.40
2018-07-20T10:25:57.476Z,26.60
2018-07-20T10:28:25.935Z,26.20
2018-07-20T10:30:54.406Z,26.50
2018-07-20T10:33:22.821Z,26.50
2018-07-20T10:35:51.350Z,26.60
2018-07-20T10:38:19.724Z,26.70
2018-07-20T10:40:48.164Z,26.70
2018-07-20T10:43:18.196Z,26.70
2018-07-20T10:45:46.706Z,27.00
2018-07-20T10:48:15.148Z,27.00
2018-07-20T10:53:11.700Z,27.00
2018-07-20T10:55:40.102Z,27.10
2018-07-20T10:58:08.552Z,27.30
2018-07-20T11:00:37.183Z,27.50
2018-07-20T11:03:05.717Z,27.50
2018-07-20T11:05:34.249Z,27.40
2018-07-20T11:08:02.731Z,27.50
2018-07-20T11:10:31.071Z,27.70
2018-07-20T11:12:59.507Z,27.60
2018-07-20T11:15:27.904Z,27.60
2018-07-20T11:17:57.516Z,27.70
2018-07-20T11:20:25.955Z,27.70
2018-07-20T11:22:54.388Z,27.60
2018-07-20T11:25:22.923Z,27.60
2018-07-20T11:27:51.348Z,27.60
2018-07-20T11:30:19.792Z,27.70
2018-07-20T11:32:48.200Z,27.60
2018-07-20T11:35:16.660Z,27.60
2018-07-20T11:37:45.116Z,27.60
2018-07-20T11:40:13.579Z,27.80
2018-07-20T11:42:41.996Z,27.80
2018-07-20T11:45:10.519Z,27.70
2018-07-20T11:47:38.924Z,28.20
2018-07-20T11:50:07.464Z,28.40
2018-07-20T11:52:35.916Z,28.20
2018-07-20T11:55:04.456Z,27.90
2018-07-20T11:57:32.892Z,28.10
2018-07-20T12:00:01.416Z,28.20
2018-07-20T12:02:29.886Z,28.20
2018-07-20T12:04:58.361Z,27.90
2018-07-20T12:07:26.752Z,28.20
2018-07-20T12:09:55.200Z,28.50
2018-07-20T12:12:23.628Z,28.80
2018-07-20T12:14:52.076Z,28.90
2018-07-20T12:17:20.488Z,29.10
2018-07-20T12:19:48.936Z,28.80
2018-07-20T12:22:17.744Z,29.00
2018-07-20T12:24:46.136Z,28.90
2018-07-20T12:27:15.541Z,29.20
2018-07-20T12:29:44.060Z,29.30
2018-07-20T12:32:12.468Z,29.10
2018-07-20T12:34:40.953Z,29.20
2018-07-20T12:37:09.410Z,29.00
2018-07-20T12:39:37.859Z,28.90
2018-07-20T12:42:06.361Z,28.90
2018-07-20T12:44:34.762Z,29.10
2018-07-20T12:47:03.244Z,29.00
2018-07-20T12:49:31.680Z,29.30
2018-07-20T12:52:00.228Z,29.40
2018-07-20T12:54:28.768Z,29.40
2018-07-20T12:56:57.239Z,29.60
2018-07-20T12:59:25.768Z,29.40
2018-07-20T13:01:54.180Z,29.10
2018-07-20T13:04:22.603Z,29.10
2018-07-20T13:06:51.129Z,29.30
2018-07-20T13:09:19.594Z,29.20
2018-07-20T13:11:48.203Z,29.30
2018-07-20T13:14:16.660Z,29.50
2018-07-20T13:16:45.174Z,29.60
2018-07-20T13:19:13.629Z,29.30
2018-07-20T13:21:42.217Z,28.90
2018-07-20T13:24:10.823Z,29.20
2018-07-20T13:26:39.610Z,29.30
2018-07-20T13:29:08.139Z,28.70
2018-07-20T13:31:36.624Z,28.60
2018-07-20T13:34:05.088Z,28.70
2018-07-20T13:36:33.547Z,28.70
2018-07-20T13:39:02.022Z,28.50
2018-07-20T13:41:30.478Z,28.30
2018-07-20T13:43:58.968Z,28.30
2018-07-20T13:46:27.401Z,28.30
2018-07-20T13:48:55.828Z,28.40
2018-07-20T13:51:24.282Z,28.40
2018-07-20T13:53:52.744Z,28.40
2018-07-20T13:56:21.217Z,28.50
2018-07-20T13:58:49.722Z,28.50
2018-07-20T14:01:18.152Z,28.50
2018-07-20T14:03:46.641Z,28.80
2018-07-20T14:06:15.095Z,28.90
2018-07-20T14:08:43.615Z,29.00
2018-07-20T14:11:12.103Z,29.30
2018-07-20T14:13:40.509Z,29.80
2018-07-20T14:16:09.011Z,29.50
2018-07-20T14:18:37.451Z,29.60
2018-07-20T14:21:05.939Z,29.40
2018-07-20T14:23:34.403Z,29.40
2018-07-20T14:26:02.943Z,29.30
2018-07-20T14:28:31.456Z,29.40
2018-07-20T14:31:00.047Z,29.20
2018-07-20T14:33:28.549Z,29.30
2018-07-20T14:35:57.011Z,29.10
2018-07-20T14:38:25.450Z,29.20
2018-07-20T14:40:53.916Z,29.10
2018-07-20T14:43:22.355Z,29.10
2018-07-20T14:45:50.833Z,29.00
2018-07-20T14:48:19.204Z,29.10
2018-07-20T14:50:47.760Z,29.10
2018-07-20T14:53:16.198Z,29.20
2018-07-20T14:55:44.680Z,29.10
2018-07-20T14:58:13.197Z,29.30
2018-07-20T15:00:41.728Z,29.00
2018-07-20T15:03:10.216Z,29.00
2018-07-20T15:05:38.932Z,29.20
2018-07-20T15:08:07.461Z,29.00
2018-07-20T15:10:35.928Z,29.30
2018-07-20T15:15:32.492Z,29.30
2018-07-20T15:18:00.958Z,29.40
2018-07-20T15:20:29.436Z,29.40
2018-07-20T15:22:57.869Z,29.50
2018-07-20T15:25:26.407Z,29.50
2018-07-20T15:27:54.900Z,29.60
2018-07-20T15:30:23.463Z,29.70
2018-07-20T15:32:52.046Z,29.80
2018-07-20T15:35:20.682Z,29.70
2018-07-20T15:37:49.505Z,29.60
2018-07-20T15:40:17.928Z,29.50
2018-07-20T15:45:14.540Z,29.50
2018-07-20T15:47:43.003Z,29.30
2018-07-20T15:50:11.432Z,29.20
2018-07-20T15:55:08.457Z,28.50
2018-07-20T15:57:36.948Z,28.30
2018-07-20T16:00:06.318Z,28.20
2018-07-20T16:02:34.716Z,28.20
2018-07-20T16:05:03.280Z,28.40
2018-07-20T16:07:31.780Z,28.70
2018-07-20T16:10:00.224Z,28.50
2018-07-20T16:12:28.640Z,28.70
2018-07-20T16:14:57.106Z,28.80
2018-07-20T16:17:25.523Z,28.70
2018-07-20T16:19:54.016Z,28.70
2018-07-20T16:22:22.490Z,28.80
2018-07-20T16:24:50.919Z,28.80
2018-07-20T16:27:19.419Z,28.80
2018-07-20T16:29:47.879Z,28.80
2018-07-20T16:32:16.338Z,28.90
2018-07-20T16:37:12.896Z,29.00
2018-07-20T16:39:41.377Z,28.80
2018-07-20T16:42:10.128Z,28.90
2018-07-20T16:44:38.657Z,28.90
2018-07-20T16:47:07.118Z,28.60
2018-07-20T16:49:35.631Z,28.50
2018-07-20T16:52:04.282Z,28.50
2018-07-20T16:54:32.836Z,28.50
2018-07-20T16:57:01.386Z,28.60
2018-07-20T16:59:29.812Z,28.30
2018-07-20T17:01:58.369Z,28.30
2018-07-20T17:04:26.962Z,28.10
2018-07-20T17:06:55.377Z,28.10
2018-07-20T17:09:23.870Z,28.20
2018-07-20T17:11:53.167Z,28.30
2018-07-20T17:14:21.844Z,28.20
2018-07-20T17:16:50.315Z,28.10
2018-07-20T17:19:18.774Z,28.00
2018-07-20T17:21:47.144Z,27.90
2018-07-20T17:24:15.781Z,27.80
2018-07-20T17:26:44.149Z,27.70
2018-07-20T17:29:12.632Z,27.70
2018-07-20T17:31:41.198Z,27.60
2018-07-20T17:34:09.639Z,27.50
2018-07-20T17:36:38.092Z,27.50
2018-07-20T17:39:09.097Z,27.40
2018-07-20T17:41:37.692Z,27.40
2018-07-20T17:44:06.411Z,27.30
2018-07-20T17:46:34.900Z,27.40
2018-07-20T17:49:03.418Z,27.30
2018-07-20T17:51:31.884Z,27.30
2018-07-20T17:54:00.331Z,27.20
2018-07-20T17:56:28.787Z,27.20
2018-07-20T17:58:57.250Z,27.00
2018-07-20T18:01:25.996Z,26.90
2018-07-20T18:03:55.447Z,26.70
2018-07-20T18:06:23.920Z,26.40
2018-07-20T18:08:52.513Z,26.10
2018-07-20T18:11:21.419Z,25.90
2018-07-20T18:13:50.020Z,25.60
2018-07-20T18:16:19.154Z,25.40
2018-07-20T18:18:47.817Z,25.20
2018-07-20T18:21:16.318Z,25.20
2018-07-20T18:23:45.038Z,25.10
2018-07-20T18:26:13.747Z,24.80
2018-07-20T18:28:42.225Z,24.50
2018-07-20T18:31:10.704Z,24.40
2018-07-20T18:33:39.283Z,24.20
2018-07-20T18:36:08.058Z,24.00
2018-07-20T18:38:36.748Z,23.90
2018-07-20T18:41:05.567Z,23.80
2018-07-20T18:43:34.340Z,23.70
2018-07-20T18:46:02.792Z,23.60
2018-07-20T18:48:31.461Z,23.40
2018-07-20T18:50:59.851Z,23.30
2018-07-20T18:53:28.296Z,23.20
2018-07-20T18:55:56.875Z,23.20
2018-07-20T18:58:25.372Z,23.10
2018-07-20T19:00:53.910Z,23.10
2018-07-20T19:03:22.332Z,23.10
2018-07-20T19:05:50.804Z,23.20
2018-07-20T19:08:19.275Z,23.10
2018-07-20T19:10:47.756Z,23.00
2018-07-20T19:13:16.257Z,23.10
2018-07-20T19:15:44.801Z,23.20
2018-07-20T19:18:13.282Z,23.20
2018-07-20T19:20:41.926Z,23.20
2018-07-20T19:23:10.524Z,23.20
2018-07-20T19:25:39.036Z,23.20
2018-07-20T19:28:07.463Z,23.30
2018-07-20T19:30:35.959Z,23.20
2018-07-20T19:33:04.456Z,23.30
2018-07-20T19:35:32.924Z,23.30
2018-07-20T19:38:01.401Z,23.30
2018-07-20T19:40:29.827Z,23.20
2018-07-20T19:42:58.392Z,23.20
2018-07-20T19:45:27.092Z,23.20
2018-07-20T19:47:55.546Z,23.30
2018-07-20T19:50:24.022Z,23.30
2018-07-20T19:52:52.435Z,23.40
2018-07-20T19:55:20.989Z,23.30
2018-07-20T19:57:49.629Z,23.20
2018-07-20T20:00:18.173Z,23.20
2018-07-20T20:02:46.840Z,23.10
2018-07-20T20:05:15.508Z,23.00
2018-07-20T20:07:43.941Z,23.00
2018-07-20T20:10:12.763Z,22.90
2018-07-20T20:12:41.188Z,22.80
2018-07-20T20:15:09.801Z,22.80
2018-07-20T20:17:38.371Z,22.60
2018-07-20T20:20:09.586Z,22.60
2018-07-20T20:22:38.061Z,22.50
2018-07-20T20:25:06.665Z,22.40
2018-07-20T20:27:35.231Z,22.40
2018-07-20T20:30:03.836Z,22.40
2018-07-20T20:32:32.306Z,22.40
2018-07-20T20:35:00.731Z,22.40
2018-07-20T20:37:29.232Z,22.60
2018-07-20T20:39:57.663Z,22.70
2018-07-20T20:42:26.132Z,22.60
2018-07-20T20:44:54.610Z,22.60
2018-07-20T20:47:23.053Z,22.70
2018-07-20T20:49:51.548Z,22.60
2018-07-20T20:52:20.593Z,22.50
2018-07-20T20:54:49.162Z,22.50
2018-07-20T20:57:17.744Z,22.50
2018-07-20T20:59:46.136Z,22.50
2018-07-20T21:02:14.558Z,22.50
2018-07-20T21:07:11.133Z,22.50
2018-07-20T21:09:39.588Z,22.50
2018-07-20T21:12:08.117Z,22.50
2018-07-20T21:14:36.547Z,22.50
2018-07-20T21:17:05.064Z,22.40
2018-07-20T21:19:33.535Z,22.40
2018-07-20T21:24:30.252Z,22.40
2018-07-20T21:26:59.134Z,22.40
2018-07-20T21:29:27.595Z,22.40
2018-07-20T21:31:56.140Z,22.50
2018-07-20T21:34:24.972Z,22.50
2018-07-20T21:36:53.400Z,22.40
2018-07-20T21:39:21.844Z,22.40
2018-07-20T21:41:50.408Z,22.30
2018-07-20T21:44:18.937Z,22.20
2018-07-20T21:46:47.335Z,22.10
2018-07-20T21:49:15.791Z,22.00
2018-07-20T21:51:44.208Z,22.00
2018-07-20T21:54:12.640Z,21.90
2018-07-20T21:56:49.196Z,21.90
2018-07-20T21:59:17.669Z,21.90
2018-07-20T22:01:46.220Z,21.90
2018-07-20T22:04:14.672Z,21.80
2018-07-20T22:06:43.127Z,21.80
2018-07-20T22:09:12.356Z,21.80
2018-07-20T22:11:40.809Z,21.80
2018-07-20T22:14:09.212Z,21.80
2018-07-20T22:16:37.781Z,21.80
2018-07-20T22:19:09.197Z,21.80
2018-07-20T22:21:37.625Z,21.80
2018-07-20T22:24:07.716Z,21.90
2018-07-20T22:26:36.423Z,21.90
2018-07-20T22:29:04.960Z,22.00
2018-07-20T22:31:33.434Z,22.10
2018-07-20T22:34:01.924Z,22.20
2018-07-20T22:36:30.387Z,22.10
2018-07-20T22:38:58.847Z,22.20
2018-07-20T22:41:27.276Z,22.20
2018-07-20T22:43:55.679Z,22.20
2018-07-20T22:46:24.324Z,22.10
2018-07-20T22:48:52.736Z,22.10
2018-07-20T22:51:21.184Z,22.00
2018-07-20T22:53:49.620Z,22.00
2018-07-20T22:56:18.029Z,21.90
2018-07-20T22:58:46.470Z,22.00
2018-07-20T23:01:14.902Z,22.00
2018-07-20T23:03:43.344Z,22.10
2018-07-20T23:06:12.518Z,22.20
2018-07-20T23:08:40.928Z,22.10
2018-07-20T23:11:09.383Z,22.10
2018-07-20T23:13:37.784Z,22.10
2018-07-20T23:16:06.292Z,22.10
2018-07-20T23:18:34.789Z,22.10
2018-07-20T23:21:03.309Z,22.10
2018-07-20T23:23:31.716Z,22.10
2018-07-20T23:26:00.167Z,22.20
2018-07-20T23:28:28.627Z,22.00
2018-07-20T23:30:57.041Z,21.90
2018-07-20T23:33:25.521Z,21.80
2018-07-20T23:35:54.077Z,21.80
2018-07-20T23:38:22.517Z,21.80
2018-07-20T23:40:50.924Z,21.80
2018-07-20T23:43:19.423Z,21.80
2018-07-20T23:45:47.825Z,21.80
2018-07-20T23:48:16.243Z,21.90
2018-07-20T23:50:44.635Z,21.90
2018-07-20T23:53:13.069Z,22.00
2018-07-20T23:55:41.541Z,22.00
2018-07-20T23:58:10.041Z,22.00
